Time;durP1;ratioP1;P1;durP2;ratioP2;P2;SDS_P1;SDS_P2;PMS_P1;PMS_P2;Temp;Humidity;BMP_temperature;BMP_pressure;BME280_temperature;BME280_humidity;BME280_pressure;Samples;Min_cycle;Max_cycle;Signal;HPM_P1;HPM_P2
2023/09/11 00:01:06;;;;;;;13.33;7.90;;;17.80;99.90;;;;;;4938225;29;20360;-80
2023/09/11 00:03:35;;;;;;;14.90;8.20;;;17.90;99.90;;;;;;4936550;29;20204;-81
2023/09/11 00:06:15;;;;;;;16.40;8.33;;;17.80;99.90;;;;;;4939611;28;20244;-81
2023/09/11 00:08:44;;;;;;;15.17;8.13;;;17.90;99.90;;;;;;4971985;28;20201;-84
2023/09/11 00:11:12;;;;;;;24.27;9.87;;;17.80;99.90;;;;;;4972035;28;20213;-81
2023/09/11 00:13:40;;;;;;;12.20;8.00;;;17.70;99.90;;;;;;4940270;28;20225;-84
2023/09/11 00:16:13;;;;;;;13.57;7.87;;;17.70;99.90;;;;;;4942241;28;20584;-87
2023/09/11 00:19:09;;;;;;;15.17;8.23;;;17.70;99.90;;;;;;4951837;28;20233;-82
2023/09/11 00:22:02;;;;;;;14.30;8.03;;;17.60;99.90;;;;;;4957235;28;20320;-81
2023/09/11 00:24:36;;;;;;;16.23;8.60;;;17.50;99.90;;;;;;4939181;28;20292;-81
2023/09/11 00:27:16;;;;;;;14.20;8.50;;;17.50;99.90;;;;;;4955114;28;20201;-81
2023/09/11 00:29:48;;;;;;;14.70;7.90;;;17.60;99.90;;;;;;4955324;28;20204;-81
2023/09/11 00:32:21;;;;;;;14.87;8.33;;;17.60;99.90;;;;;;4955621;28;20189;-85
2023/09/11 00:34:57;;;;;;;12.83;8.13;;;17.50;99.90;;;;;;4940203;28;20672;-81
2023/09/11 00:37:27;;;;;;;14.80;8.60;;;17.60;99.90;;;;;;4956241;28;20240;-81
2023/09/11 00:40:00;;;;;;;15.87;8.70;;;17.50;99.90;;;;;;4956123;28;20275;-81
2023/09/11 00:42:28;;;;;;;15.27;8.80;;;17.50;99.90;;;;;;4955727;28;20189;-81
2023/09/11 00:44:58;;;;;;;18.27;9.20;;;17.50;99.90;;;;;;4972409;28;20225;-81
2023/09/11 00:47:32;;;;;;;14.93;9.07;;;17.50;99.90;;;;;;4973109;28;20201;-80
2023/09/11 00:50:07;;;;;;;14.37;9.33;;;17.40;99.90;;;;;;4955319;28;20221;-81
2023/09/11 00:52:49;;;;;;;14.87;9.10;;;17.40;99.90;;;;;;4956940;28;20192;-84
2023/09/11 00:55:22;;;;;;;16.60;9.07;;;17.40;99.90;;;;;;4972160;28;20297;-81
2023/09/11 00:57:57;;;;;;;17.53;9.40;;;17.40;99.90;;;;;;4939080;28;20219;-80
2023/09/11 01:00:31;;;;;;;20.97;10.60;;;17.40;99.90;;;;;;4954673;28;20196;-81
2023/09/11 01:03:02;;;;;;;19.83;9.53;;;17.40;99.90;;;;;;4954997;28;20205;-83
2023/09/11 01:05:37;;;;;;;15.90;9.00;;;17.40;99.90;;;;;;4955374;28;20218;-84
2023/09/11 01:08:07;;;;;;;18.80;9.97;;;17.30;99.90;;;;;;4971888;28;20732;-84
2023/09/11 01:10:37;;;;;;;15.53;9.40;;;17.40;99.90;;;;;;4940039;28;20201;-80
2023/09/11 01:13:20;;;;;;;15.10;9.20;;;17.40;99.90;;;;;;4956280;28;20193;-80
2023/09/11 01:16:12;;;;;;;16.03;8.93;;;17.40;99.90;;;;;;4955567;28;20241;-81
2023/09/11 01:18:53;;;;;;;14.97;9.03;;;17.30;99.90;;;;;;4955767;28;20656;-81
2023/09/11 01:22:12;;;;;;;19.80;10.03;;;17.30;99.90;;;;;;4939127;28;20221;-81
2023/09/11 01:25:05;;;;;;;15.33;9.10;;;17.30;99.90;;;;;;4910661;28;20296;-86
2023/09/11 01:27:43;;;;;;;16.03;9.73;;;17.20;99.90;;;;;;4972226;28;20194;-84
2023/09/11 01:30:16;;;;;;;17.27;9.33;;;17.20;99.90;;;;;;4973901;28;20205;-81
2023/09/11 01:32:57;;;;;;;16.33;9.03;;;17.20;99.90;;;;;;4944011;28;20193;-81
2023/09/11 01:35:40;;;;;;;17.00;9.47;;;17.20;99.90;;;;;;4958037;28;20316;-80
2023/09/11 01:38:11;;;;;;;15.83;9.97;;;17.20;99.90;;;;;;4974023;28;20221;-81
2023/09/11 01:40:47;;;;;;;14.73;9.37;;;17.20;99.90;;;;;;4975845;28;20540;-81
2023/09/11 01:43:21;;;;;;;14.80;9.50;;;17.20;99.90;;;;;;4958278;28;20692;-81
2023/09/11 01:45:49;;;;;;;15.33;9.40;;;17.10;99.90;;;;;;4957026;28;20288;-80
2023/09/11 01:48:29;;;;;;;19.03;10.27;;;17.10;99.90;;;;;;4942360;28;20202;-80
2023/09/11 01:51:03;;;;;;;21.97;10.33;;;17.10;99.90;;;;;;4942255;28;20715;-82
2023/09/11 01:53:40;;;;;;;14.70;9.40;;;17.10;99.90;;;;;;4942121;28;20201;-85
2023/09/11 01:56:11;;;;;;;15.40;9.83;;;17.10;99.90;;;;;;4956996;28;20284;-85
2023/09/11 01:59:34;;;;;;;17.67;9.23;;;17.10;99.90;;;;;;4938220;28;20201;-85
2023/09/11 02:07:21;;;;;;;19.60;10.00;;;16.90;99.90;;;;;;4997003;23;20247;-85
2023/09/11 02:10:18;;;;;;;18.53;9.80;;;17.00;99.90;;;;;;4963033;28;20212;-85
2023/09/11 02:13:08;;;;;;;17.83;10.20;;;16.90;99.90;;;;;;4979000;28;20224;-81
2023/09/11 02:15:42;;;;;;;18.43;10.77;;;16.80;99.90;;;;;;4960766;28;20219;-81
2023/09/11 02:18:32;;;;;;;26.90;11.97;;;16.90;99.90;;;;;;4975368;28;20212;-82
2023/09/11 02:21:29;;;;;;;19.87;10.50;;;16.90;99.90;;;;;;4917300;29;20295;-82
2023/09/11 02:24:11;;;;;;;16.40;9.63;;;16.90;99.90;;;;;;4884077;29;20214;-81
2023/09/11 02:27:05;;;;;;;15.80;9.97;;;17.00;99.90;;;;;;4885291;29;20203;-82
2023/09/11 02:29:42;;;;;;;19.47;10.60;;;16.90;99.90;;;;;;4914398;29;20211;-82
2023/09/11 02:32:17;;;;;;;15.87;10.10;;;16.90;99.90;;;;;;4899535;29;20211;-82
2023/09/11 02:34:50;;;;;;;15.57;9.87;;;16.90;99.90;;;;;;4898786;29;20211;-81
2023/09/11 02:37:22;;;;;;;17.07;10.30;;;16.80;99.90;;;;;;4914119;29;20313;-85
2023/09/11 02:39:59;;;;;;;19.93;10.30;;;16.70;99.90;;;;;;4914927;29;20632;-81
2023/09/11 02:42:27;;;;;;;20.20;10.40;;;16.80;99.90;;;;;;4914569;29;20822;-84
2023/09/11 02:45:03;;;;;;;18.13;10.13;;;16.70;99.90;;;;;;4915115;29;20267;-85
2023/09/11 02:48:02;;;;;;;18.87;10.33;;;16.70;99.90;;;;;;4901222;29;20202;-84
2023/09/11 02:51:07;;;;;;;18.27;10.20;;;16.60;99.90;;;;;;4885713;29;20266;-85
2023/09/11 02:53:48;;;;;;;19.97;9.97;;;16.70;99.90;;;;;;4914628;29;20312;-85
2023/09/11 02:56:21;;;;;;;18.80;9.93;;;16.70;99.90;;;;;;4914757;29;20679;-85
2023/09/11 03:03:34;;;;;;;15.53;9.70;;;16.70;99.90;;;;;;4765824;30;20728;-83
2023/09/11 03:06:22;;;;;;;14.87;9.63;;;16.60;99.90;;;;;;4784770;29;20239;-80
2023/09/11 03:09:09;;;;;;;14.53;9.93;;;16.60;99.90;;;;;;4784283;30;20211;-81
2023/09/11 03:16:17;;;;;;;14.80;9.70;;;16.50;99.90;;;;;;4819794;29;20242;-81
2023/09/11 03:19:14;;;;;;;17.90;10.00;;;16.50;99.90;;;;;;4821858;29;20226;-84
2023/09/11 03:22:14;;;;;;;16.83;10.20;;;16.50;99.90;;;;;;4823866;29;20230;-84
2023/09/11 03:24:49;;;;;;;15.83;9.73;;;16.40;99.90;;;;;;4806487;29;20313;-85
2023/09/11 03:27:40;;;;;;;17.17;10.30;;;16.40;99.90;;;;;;4807187;29;20203;-85
2023/09/11 03:35:06;;;;;;;17.57;10.10;;;16.40;99.90;;;;;;4801514;29;20347;-81
2023/09/11 03:37:59;;;;;;;15.30;9.90;;;16.40;99.90;;;;;;4826373;29;20260;-81
2023/09/11 03:40:55;;;;;;;21.00;10.00;;;16.30;99.90;;;;;;4889362;29;20200;-81
2023/09/11 03:43:47;;;;;;;20.17;10.10;;;16.30;99.90;;;;;;4879784;29;20199;-81
2023/09/11 03:47:13;;;;;;;21.03;10.53;;;16.30;99.90;;;;;;4893949;29;20677;-82
2023/09/11 03:50:04;;;;;;;19.83;10.63;;;16.20;99.90;;;;;;4855677;29;20213;-81
2023/09/11 03:53:14;;;;;;;15.87;10.43;;;16.20;99.90;;;;;;4851858;29;20204;-80
2023/09/11 03:55:57;;;;;;;17.97;10.37;;;16.30;99.90;;;;;;4897731;29;20238;-81
2023/09/11 03:58:39;;;;;;;18.90;10.67;;;16.20;99.90;;;;;;4897675;29;20238;-88
2023/09/11 04:01:31;;;;;;;16.50;10.20;;;16.20;99.90;;;;;;4843854;29;20840;-83
2023/09/11 04:04:11;;;;;;;19.00;10.23;;;16.20;99.90;;;;;;4857672;29;20233;-84
2023/09/11 04:06:40;;;;;;;14.60;9.63;;;16.10;99.90;;;;;;4841432;29;20352;-84
2023/09/11 04:09:29;;;;;;;16.13;10.27;;;16.20;99.90;;;;;;4857030;29;20278;-79
2023/09/11 04:12:14;;;;;;;17.90;10.57;;;16.10;99.90;;;;;;4820129;29;20226;-80
2023/09/11 04:15:10;;;;;;;14.93;10.00;;;16.10;99.90;;;;;;4823583;29;20663;-85
2023/09/11 04:17:54;;;;;;;17.13;10.97;;;16.10;99.90;;;;;;4825192;29;20301;-81
2023/09/11 04:20:47;;;;;;;19.00;10.20;;;16.10;99.90;;;;;;4822849;29;20225;-79
2023/09/11 04:23:24;;;;;;;16.50;10.20;;;16.10;99.90;;;;;;4810431;29;20210;-81
2023/09/11 04:26:31;;;;;;;;;;;;;;;;;;;;;
2023/09/11 04:29:35;;;;;;;18.40;10.17;;;16.00;99.90;;;;;;4913016;29;20194;-80
2023/09/11 04:32:12;;;;;;;13.77;10.30;;;16.00;99.90;;;;;;4913104;29;20710;-80
2023/09/11 04:34:41;;;;;;;17.77;10.87;;;16.10;99.90;;;;;;4913037;29;20618;-80
2023/09/11 04:37:13;;;;;;;19.00;10.93;;;16.10;99.90;;;;;;4882053;29;20318;-80
2023/09/11 04:39:46;;;;;;;15.97;10.53;;;16.10;99.90;;;;;;4897117;29;20726;-84
2023/09/11 04:42:22;;;;;;;20.37;10.93;;;16.10;99.90;;;;;;4916876;29;20274;-83
2023/09/11 04:44:52;;;;;;;16.73;10.77;;;16.10;99.90;;;;;;4934112;29;20193;-85
2023/09/11 04:47:24;;;;;;;17.83;10.50;;;16.10;99.90;;;;;;4948513;29;20549;-84
2023/09/11 04:50:06;;;;;;;19.93;12.03;;;16.10;99.90;;;;;;4932125;29;20211;-84
2023/09/11 04:52:40;;;;;;;19.03;11.80;;;16.20;99.90;;;;;;4934156;29;20191;-84
2023/09/11 04:55:16;;;;;;;22.93;12.07;;;16.30;99.90;;;;;;4933697;29;20202;-85
2023/09/11 04:57:52;;;;;;;20.47;12.10;;;16.30;99.90;;;;;;4934030;29;20219;-84
2023/09/11 05:00:23;;;;;;;22.60;12.30;;;16.40;99.90;;;;;;4948965;29;20257;-85
2023/09/11 05:02:52;;;;;;;19.97;11.30;;;16.40;99.90;;;;;;4932454;29;20199;-85
2023/09/11 05:05:28;;;;;;;22.07;11.90;;;16.40;99.90;;;;;;4935662;29;20305;-79
2023/09/11 05:07:56;;;;;;;19.67;11.80;;;16.50;99.90;;;;;;4937439;29;20242;-81
2023/09/11 05:10:46;;;;;;;19.20;12.10;;;16.50;99.90;;;;;;4936902;29;20214;-81
2023/09/11 05:13:19;;;;;;;26.67;13.03;;;16.60;99.90;;;;;;4937481;29;20203;-79
2023/09/11 05:15:48;;;;;;;22.67;11.93;;;16.70;99.90;;;;;;4935880;29;20218;-78
2023/09/11 05:18:18;;;;;;;19.83;11.23;;;16.70;99.90;;;;;;4936181;29;20274;-84
2023/09/11 05:20:50;;;;;;;17.73;10.63;;;16.70;99.90;;;;;;4936191;29;20305;-83
2023/09/11 05:23:33;;;;;;;19.40;11.63;;;16.80;99.90;;;;;;4950169;29;20660;-80
2023/09/11 05:26:11;;;;;;;18.60;11.53;;;16.80;99.90;;;;;;4920044;29;20203;-81
2023/09/11 05:28:39;;;;;;;25.57;12.67;;;16.90;99.90;;;;;;4937692;29;20202;-79
2023/09/11 05:31:07;;;;;;;17.10;10.60;;;16.90;99.90;;;;;;4937332;29;20187;-79
2023/09/11 05:33:46;;;;;;;21.20;12.03;;;16.90;99.90;;;;;;4937301;29;20246;-78
2023/09/11 05:36:14;;;;;;;22.63;12.03;;;17.00;99.90;;;;;;4934212;29;20230;-79
2023/09/11 05:38:47;;;;;;;18.90;11.63;;;17.10;99.90;;;;;;4935952;29;20632;-76
2023/09/11 05:41:14;;;;;;;22.60;11.87;;;17.20;99.90;;;;;;4936454;29;20188;-80
2023/09/11 05:43:41;;;;;;;20.60;11.47;;;17.30;99.90;;;;;;4936343;29;20239;-76
2023/09/11 05:46:15;;;;;;;23.03;12.37;;;17.30;99.90;;;;;;4936180;29;20199;-76
2023/09/11 05:48:49;;;;;;;20.53;11.23;;;17.40;99.90;;;;;;4936528;29;20187;-77
2023/09/11 05:51:20;;;;;;;22.57;11.50;;;17.50;99.90;;;;;;4936483;29;20647;-77
2023/09/11 05:53:48;;;;;;;17.23;11.13;;;17.50;99.90;;;;;;4934614;29;20223;-78
2023/09/11 05:56:20;;;;;;;20.63;11.57;;;17.60;99.90;;;;;;4936069;29;20309;-78
2023/09/11 05:58:48;;;;;;;21.70;11.53;;;17.60;99.90;;;;;;4935231;29;20504;-76
2023/09/11 06:01:18;;;;;;;24.73;12.23;;;17.80;99.90;;;;;;4935492;29;20654;-77
2023/09/11 06:04:44;;;;;;;22.43;11.87;;;17.70;99.90;;;;;;4933676;29;20266;-84
2023/09/11 06:07:16;;;;;;;21.03;11.10;;;17.80;99.90;;;;;;4932539;29;20329;-79
2023/09/11 06:09:52;;;;;;;21.87;11.37;;;18.00;99.90;;;;;;4935791;29;20202;-78
2023/09/11 06:12:24;;;;;;;23.40;11.67;;;18.10;99.90;;;;;;4937027;29;20661;-84
2023/09/11 06:14:56;;;;;;;23.23;11.87;;;18.00;99.90;;;;;;4936167;29;20636;-83
2023/09/11 06:17:27;;;;;;;20.33;11.37;;;18.20;99.90;;;;;;4936552;29;20211;-83
2023/09/11 06:20:15;;;;;;;16.70;11.33;;;18.20;99.90;;;;;;4935586;29;20290;-82
2023/09/11 06:22:44;;;;;;;18.60;10.77;;;18.40;99.90;;;;;;4936340;29;20596;-81
2023/09/11 06:25:12;;;;;;;18.03;10.73;;;18.50;99.90;;;;;;4936342;29;20195;-77
2023/09/11 06:27:43;;;;;;;21.07;10.90;;;18.60;99.90;;;;;;4936540;29;20206;-76
2023/09/11 06:30:11;;;;;;;21.87;11.37;;;18.70;99.90;;;;;;4933791;29;20670;-82
2023/09/11 06:32:45;;;;;;;17.23;10.60;;;18.70;99.90;;;;;;4937182;29;20277;-83
2023/09/11 06:58:49;;;;;;;;;;;;;;;;;;;;;
2023/09/11 07:18:07;;;;;;;17.37;10.33;;;20.30;99.90;;;;;;5877175;23;20188;-81
2023/09/11 07:20:38;;;;;;;16.73;10.20;;;20.40;99.90;;;;;;4877309;29;20617;-79
2023/09/11 07:23:05;;;;;;;14.63;9.77;;;20.50;99.90;;;;;;4878741;29;20200;-80
2023/09/11 07:25:33;;;;;;;19.23;10.10;;;20.60;99.90;;;;;;4877011;29;20668;-81
2023/09/11 07:28:05;;;;;;;19.07;9.93;;;20.60;99.90;;;;;;4876450;29;20688;-80
2023/09/11 07:30:38;;;;;;;19.93;10.40;;;20.50;99.90;;;;;;4892197;29;20585;-81
2023/09/11 07:33:11;;;;;;;15.43;9.50;;;20.80;99.90;;;;;;4862251;29;20200;-80
2023/09/11 07:35:59;;;;;;;20.40;10.33;;;20.90;99.90;;;;;;4877097;29;20268;-82
2023/09/11 07:38:52;;;;;;;16.93;9.97;;;21.10;99.90;;;;;;4876205;29;20208;-88
2023/09/11 07:41:45;;;;;;;18.33;10.43;;;21.30;99.90;;;;;;4873914;29;20196;-83
2023/09/11 07:44:24;;;;;;;17.13;9.87;;;21.40;99.90;;;;;;4877794;29;20653;-82
2023/09/11 07:47:00;;;;;;;23.43;10.27;;;21.50;99.90;;;;;;4876998;29;20208;-82
2023/09/11 07:49:35;;;;;;;15.47;10.23;;;21.60;99.90;;;;;;4876650;29;20215;-80
2023/09/11 07:52:06;;;;;;;16.00;9.90;;;21.80;99.90;;;;;;4876798;29;20217;-88
2023/09/11 07:54:37;;;;;;;14.07;9.50;;;22.00;99.90;;;;;;4864011;29;20558;-88
2023/09/11 07:57:05;;;;;;;20.43;10.27;;;22.00;99.90;;;;;;4877090;29;20209;-88
2023/09/11 07:59:35;;;;;;;19.63;10.47;;;22.30;99.90;;;;;;4878954;29;20833;-87
2023/09/11 08:02:03;;;;;;;19.00;11.03;;;22.40;99.90;;;;;;4878771;29;20276;-79
2023/09/11 08:04:32;;;;;;;16.87;10.13;;;22.50;99.90;;;;;;4876763;29;20201;-78
2023/09/11 08:07:04;;;;;;;20.00;9.90;;;22.60;99.90;;;;;;4878036;29;20754;-82
2023/09/11 08:09:35;;;;;;;13.97;9.30;;;22.60;99.90;;;;;;4879021;29;20267;-78
2023/09/11 08:12:03;;;;;;;15.13;9.90;;;22.80;99.90;;;;;;4878066;29;20207;-81
2023/09/11 08:14:36;;;;;;;19.77;9.80;;;23.00;99.90;;;;;;4876945;29;20200;-80
2023/09/11 08:17:04;;;;;;;14.77;9.23;;;23.20;99.90;;;;;;4878294;29;20220;-88
2023/09/11 08:19:31;;;;;;;15.65;9.63;;;23.30;99.90;;;;;;4877243;29;20319;-88
2023/09/11 08:22:23;;;;;;;17.63;9.77;;;23.40;99.90;;;;;;4862540;29;20256;-88
2023/09/11 08:25:07;;;;;;;14.60;9.13;;;23.40;99.90;;;;;;4874550;29;20204;-88
2023/09/11 08:27:46;;;;;;;13.48;9.50;;;24.40;99.90;;;;;;4877029;29;20231;-88
2023/09/11 08:30:34;;;;;;;14.55;8.65;;;25.50;99.90;;;;;;4862831;29;20216;-89
2023/09/11 08:33:35;;;;;;;14.68;8.73;;;26.50;99.90;;;;;;4847992;29;20232;-88
2023/09/11 08:36:27;;;;;;;15.55;9.23;;;27.40;99.90;;;;;;4870867;29;20236;-88
2023/09/11 08:39:25;;;;;;;14.73;8.88;;;28.20;99.90;;;;;;4864689;29;20224;-89
2023/09/11 08:42:04;;;;;;;12.82;8.73;;;28.90;99.90;;;;;;4880651;29;20700;-89
2023/09/11 08:44:45;;;;;;;26.17;10.48;;;29.30;99.90;;;;;;4813419;29;20334;-89
2023/09/11 08:47:29;;;;;;;20.50;9.15;;;28.50;99.90;;;;;;4811324;29;20198;-81
2023/09/11 08:50:20;;;;;;;15.90;9.63;;;28.70;99.90;;;;;;4826732;29;20218;-81
2023/09/11 08:53:14;;;;;;;16.33;8.98;;;29.40;99.90;;;;;;4813635;29;20289;-81
2023/09/11 08:55:47;;;;;;;14.35;7.93;;;30.00;99.90;;;;;;4841579;29;20205;-80
2023/09/11 08:58:23;;;;;;;15.55;9.32;;;29.90;99.90;;;;;;4825934;29;20300;-81
2023/09/11 09:01:06;;;;;;;18.52;8.90;;;30.30;99.90;;;;;;4841630;29;20201;-81
2023/09/11 09:03:37;;;;;;;14.05;8.40;;;30.50;99.90;;;;;;4841378;29;20206;-80
2023/09/11 09:06:12;;;;;;;16.13;8.75;;;30.50;99.90;;;;;;4825617;29;20313;-82
2023/09/11 09:08:53;;;;;;;11.35;8.02;;;30.30;99.90;;;;;;4826006;29;20251;-81
2023/09/11 09:11:36;;;;;;;16.50;9.10;;;30.70;99.90;;;;;;4825775;29;20206;-81
2023/09/11 09:14:14;;;;;;;13.32;8.50;;;30.30;99.90;;;;;;4825666;29;20278;-89
2023/09/11 09:16:57;;;;;;;17.23;9.18;;;30.10;99.90;;;;;;4826920;29;20234;-91
2023/09/11 09:19:29;;;;;;;10.60;8.02;;;30.80;99.90;;;;;;4826204;29;20294;-90
2023/09/11 09:22:23;;;;;;;16.02;8.65;;;31.00;99.90;;;;;;4787908;29;20300;-81
2023/09/11 09:25:08;;;;;;;12.40;8.25;;;31.50;99.90;;;;;;4788359;29;20233;-81
2023/09/11 09:27:49;;;;;;;16.20;8.13;;;31.60;99.90;;;;;;4781555;29;20260;-81
2023/09/11 09:30:57;;;;;;;11.55;7.88;;;31.90;99.90;;;;;;4831079;29;20205;-82
2023/09/11 09:33:56;;;;;;;15.27;7.97;;;32.30;99.90;;;;;;4842988;29;20205;-81
2023/09/11 09:37:41;;;;;;;24.27;8.90;;;32.60;99.90;;;;;;4828826;29;20226;-81
2023/09/11 09:40:39;;;;;;;13.25;8.40;;;32.80;99.90;;;;;;4841235;29;20197;-90
2023/09/11 09:43:21;;;;;;;14.52;8.48;;;33.20;99.90;;;;;;4843818;29;20748;-81
2023/09/11 09:45:55;;;;;;;13.20;7.80;;;32.60;99.80;;;;;;4807187;29;20281;-89
2023/09/11 09:48:23;;;;;;;13.43;7.60;;;32.60;99.90;;;;;;4807474;29;20207;-90
2023/09/11 09:51:05;;;;;;;10.27;7.50;;;33.20;99.80;;;;;;4806995;29;20227;-79
2023/09/11 09:53:41;;;;;;;10.38;7.45;;;33.80;98.80;;;;;;4834640;29;20201;-80
2023/09/11 09:56:47;;;;;;;18.90;8.38;;;34.00;97.00;;;;;;4858775;29;20217;-82
2023/09/11 09:59:23;;;;;;;15.13;8.23;;;34.10;96.30;;;;;;4859210;29;20242;-81
2023/09/11 10:02:41;;;;;;;16.17;7.53;;;33.90;95.80;;;;;;4843284;29;20665;-80
2023/09/11 10:05:37;;;;;;;21.63;8.10;;;34.40;95.70;;;;;;4837872;29;20292;-81
2023/09/11 10:08:17;;;;;;;10.75;7.53;;;34.50;93.80;;;;;;4824425;29;20238;-88
2023/09/11 10:11:01;;;;;;;12.32;7.40;;;34.30;93.00;;;;;;4824175;29;20206;-88
2023/09/11 10:13:42;;;;;;;10.20;7.10;;;34.20;92.60;;;;;;4824866;29;20302;-89
2023/09/11 10:16:25;;;;;;;13.45;7.30;;;34.50;92.30;;;;;;4840599;29;20213;-80
2023/09/11 10:19:16;;;;;;;12.40;7.22;;;34.90;91.90;;;;;;4819919;29;20246;-79
2023/09/11 10:21:45;;;;;;;16.00;7.85;;;34.50;90.90;;;;;;4840140;29;20702;-81
2023/09/11 10:24:15;;;;;;;13.05;7.20;;;34.80;91.50;;;;;;4808121;29;20360;-80
2023/09/11 10:26:51;;;;;;;14.82;7.97;;;35.00;91.00;;;;;;4839461;29;20206;-81
2023/09/11 10:29:30;;;;;;;15.02;7.53;;;35.40;90.50;;;;;;4838689;29;20355;-83
2023/09/11 10:32:16;;;;;;;13.00;7.18;;;35.30;88.40;;;;;;4822275;29;20638;-79
2023/09/11 10:35:01;;;;;;;15.05;7.60;;;34.80;88.80;;;;;;4839466;29;20217;-81
2023/09/11 10:37:38;;;;;;;10.60;7.22;;;35.10;89.10;;;;;;4822569;29;20710;-82
2023/09/11 10:44:43;;;;;;;13.50;7.10;;;35.90;85.10;;;;;;4829079;29;20327;-80
2023/09/11 10:48:40;;;;;;;11.98;6.95;;;35.60;84.40;;;;;;4803150;29;20205;-90
2023/09/11 10:54:19;;;;;;;13.10;7.63;;;34.90;84.00;;;;;;5247126;23;20331;-82
2023/09/11 10:56:54;;;;;;;10.70;7.47;;;34.90;85.10;;;;;;4878900;29;20224;-82
2023/09/11 10:59:31;;;;;;;12.30;7.63;;;35.00;84.60;;;;;;4862348;29;20193;-82
2023/09/11 11:02:58;;;;;;;11.02;7.15;;;35.00;85.00;;;;;;4860080;29;20402;-84
2023/09/11 11:05:39;;;;;;;11.25;7.13;;;35.20;84.30;;;;;;4805487;29;20226;-82
2023/09/11 11:08:17;;;;;;;13.25;7.70;;;35.30;83.90;;;;;;4820296;29;20271;-82
2023/09/11 11:10:49;;;;;;;10.65;7.25;;;35.30;84.60;;;;;;4790862;29;20275;-81
2023/09/11 11:13:55;;;;;;;12.05;7.30;;;35.00;83.80;;;;;;4805682;29;20211;-79
2023/09/11 11:16:30;;;;;;;12.30;7.07;;;35.40;83.50;;;;;;4782811;29;20671;-81
2023/09/11 11:19:03;;;;;;;9.23;6.70;;;35.00;83.20;;;;;;4820518;29;20199;-82
2023/09/11 11:21:55;;;;;;;10.95;6.65;;;35.20;82.30;;;;;;4803410;29;20235;-86
2023/09/11 11:25:11;;;;;;;7.28;5.85;;;36.40;78.40;;;;;;4822338;29;20230;-89
2023/09/11 11:28:25;;;;;;;8.57;5.95;;;36.30;71.50;;;;;;4773764;29;20291;-88
2023/09/11 11:30:57;;;;;;;10.77;6.13;;;35.70;71.20;;;;;;4802770;29;20275;-88
2023/09/11 11:33:33;;;;;;;6.93;5.68;;;37.10;70.70;;;;;;4802810;29;20234;-87
2023/09/11 11:36:09;;;;;;;9.30;6.40;;;38.30;66.70;;;;;;4803161;29;20238;-88
2023/09/11 11:38:40;;;;;;;9.18;5.55;;;39.00;64.40;;;;;;4802374;29;20241;-89
2023/09/11 11:41:35;;;;;;;8.35;5.68;;;39.90;62.70;;;;;;4811477;29;20238;-83
2023/09/11 11:44:09;;;;;;;8.52;5.40;;;40.60;61.20;;;;;;4823301;29;20198;-82
2023/09/11 11:46:41;;;;;;;7.35;5.60;;;40.80;58.80;;;;;;4823812;29;20638;-81
2023/09/11 11:49:24;;;;;;;7.65;5.95;;;39.70;58.20;;;;;;4838419;29;20190;-81
2023/09/11 11:52:04;;;;;;;6.45;5.72;;;39.10;59.20;;;;;;4839080;29;20233;-81
2023/09/11 11:54:46;;;;;;;7.78;6.22;;;40.00;59.80;;;;;;4824213;29;20615;-81
2023/09/11 11:57:20;;;;;;;8.60;5.97;;;40.80;57.40;;;;;;4838751;29;20238;-80
2023/09/11 11:59:54;;;;;;;7.13;5.43;;;41.50;57.40;;;;;;4838917;29;20189;-81
2023/09/11 12:02:25;;;;;;;5.90;5.30;;;41.60;56.30;;;;;;4838472;29;20214;-84
2023/09/11 12:04:58;;;;;;;6.18;5.50;;;42.10;55.70;;;;;;4867726;29;20232;-82
2023/09/11 12:07:33;;;;;;;8.13;5.70;;;42.00;54.70;;;;;;4861219;29;20220;-82
2023/09/11 12:10:01;;;;;;;10.38;6.00;;;41.60;54.10;;;;;;4877985;29;20201;-87
2023/09/11 12:17:03;;;;;;;8.10;5.85;;;40.50;54.60;;;;;;4856079;29;20191;-88
2023/09/11 12:19:42;;;;;;;8.63;6.22;;;41.30;53.50;;;;;;4833638;29;20212;-87
2023/09/11 12:23:01;;;;;;;7.95;5.90;;;41.40;53.10;;;;;;4836861;29;20236;-87
2023/09/11 14:39:04;;;;;;;12.57;8.05;;;30.70;74.00;;;;;;6065347;22;1854529;-84
2023/09/11 14:42:06;;;;;;;10.95;8.00;;;30.60;73.80;;;;;;6258401;22;20173;-86
2023/09/11 14:45:02;;;;;;;10.15;8.02;;;30.40;74.50;;;;;;6224478;22;20215;-82
2023/09/11 14:47:37;;;;;;;10.80;7.35;;;30.30;75.30;;;;;;6249680;22;20353;-82
2023/09/11 14:55:10;;;;;;;13.27;8.60;;;30.30;75.00;;;;;;6122587;23;20189;-88
2023/09/11 15:15:17;;;;;;;;;;;;;;;;;;;;;
2023/09/11 15:19:12;;;;;;;;;;;;;;;;;;;;;
2023/09/11 15:57:15;;;;;;;12.60;8.73;;;28.50;82.90;;;;;;6022455;23;20163;-88
2023/09/11 16:01:40;;;;;;;15.80;9.43;;;28.30;83.10;;;;;;5972302;23;20250;-88
2023/09/11 16:15:53;;;;;;;11.88;8.88;;;28.00;84.90;;;;;;6128106;22;20454;-79
2023/09/11 16:18:21;;;;;;;12.75;8.77;;;27.80;85.20;;;;;;6150186;23;20168;-79
2023/09/11 16:20:48;;;;;;;14.13;8.85;;;27.80;85.40;;;;;;6111831;23;20260;-80
2023/09/11 16:23:16;;;;;;;13.80;9.38;;;27.70;86.00;;;;;;6118571;23;20169;-79
2023/09/11 16:25:43;;;;;;;13.35;8.63;;;27.70;86.60;;;;;;6118745;23;20499;-76
2023/09/11 16:28:11;;;;;;;15.90;9.48;;;27.60;87.30;;;;;;6120139;23;20172;-75
2023/09/11 16:30:39;;;;;;;16.75;9.30;;;27.50;87.90;;;;;;6118412;23;20414;-76
2023/09/11 16:33:07;;;;;;;13.32;9.00;;;27.40;87.40;;;;;;6118524;23;20184;-76
2023/09/11 16:35:35;;;;;;;13.90;9.18;;;27.30;88.00;;;;;;6119921;23;20205;-77
2023/09/11 16:38:05;;;;;;;12.85;9.65;;;27.20;89.00;;;;;;6118930;23;20563;-76
2023/09/11 16:40:34;;;;;;;13.90;9.60;;;27.10;89.30;;;;;;6119150;23;20218;-76
2023/09/11 16:43:02;;;;;;;12.13;9.13;;;27.00;89.40;;;;;;6118171;23;20169;-76
2023/09/11 16:45:29;;;;;;;16.65;9.50;;;26.90;89.20;;;;;;6118166;23;20197;-77
2023/09/11 16:47:57;;;;;;;15.65;9.55;;;26.80;90.00;;;;;;6118906;23;20216;-80
2023/09/11 16:50:24;;;;;;;13.45;9.63;;;26.60;90.40;;;;;;6118020;23;20191;-79
2023/09/11 16:52:52;;;;;;;14.10;9.60;;;26.60;90.60;;;;;;6118804;23;20275;-76
2023/09/11 16:55:22;;;;;;;12.13;9.63;;;26.50;90.50;;;;;;6118164;23;20185;-76
2023/09/11 16:57:50;;;;;;;13.95;9.60;;;26.40;90.70;;;;;;6118318;23;20534;-79
2023/09/11 17:00:18;;;;;;;12.88;9.65;;;26.30;91.00;;;;;;6118279;23;20295;-81
2023/09/11 17:02:52;;;;;;;14.25;9.85;;;26.20;91.20;;;;;;6118885;23;20240;-79
2023/09/11 17:05:21;;;;;;;15.25;10.00;;;26.10;91.70;;;;;;6119943;23;20695;-79
2023/09/11 17:07:48;;;;;;;16.40;10.57;;;26.10;92.10;;;;;;6118995;23;20184;-79
2023/09/11 17:10:15;;;;;;;12.85;10.05;;;25.90;93.10;;;;;;6119575;23;20169;-80
2023/09/11 17:12:43;;;;;;;13.48;10.02;;;25.80;93.00;;;;;;6119484;23;20173;-79
2023/09/11 17:15:10;;;;;;;14.68;10.02;;;25.70;93.00;;;;;;6120579;23;20193;-80
2023/09/11 17:17:37;;;;;;;14.23;10.60;;;25.60;93.40;;;;;;6120203;23;20214;-79
2023/09/11 17:20:06;;;;;;;16.15;10.73;;;25.50;93.20;;;;;;6120482;23;20570;-79
2023/09/11 17:22:34;;;;;;;15.40;10.63;;;25.30;93.50;;;;;;6120140;23;20199;-79
2023/09/11 17:25:02;;;;;;;14.13;10.20;;;25.30;93.90;;;;;;6120793;23;20200;-79
2023/09/11 17:27:30;;;;;;;15.95;10.50;;;25.20;94.30;;;;;;6121014;23;20252;-76
2023/09/11 17:29:57;;;;;;;13.32;10.60;;;25.00;94.90;;;;;;6120955;23;20608;-74
2023/09/11 17:32:25;;;;;;;14.90;10.95;;;25.00;95.10;;;;;;6121559;23;20200;-79
2023/09/11 17:34:53;;;;;;;15.27;10.32;;;24.80;95.60;;;;;;6120804;23;20173;-79
2023/09/11 17:37:20;;;;;;;16.05;10.55;;;24.70;96.00;;;;;;6121227;23;20652;-79
2023/09/11 17:39:48;;;;;;;17.75;10.13;;;24.60;96.50;;;;;;6120400;23;20169;-78
2023/09/11 17:42:16;;;;;;;14.77;9.90;;;24.60;96.70;;;;;;6120949;23;20257;-79
2023/09/11 17:44:43;;;;;;;15.55;10.90;;;24.50;97.20;;;;;;6121306;23;20197;-79
2023/09/11 17:47:11;;;;;;;15.45;10.75;;;24.30;97.70;;;;;;6120837;23;20537;-78
2023/09/11 17:49:40;;;;;;;14.43;10.63;;;24.20;98.20;;;;;;6121169;23;20234;-78
2023/09/11 17:52:08;;;;;;;14.75;10.80;;;24.20;98.80;;;;;;6094661;23;20239;-79
2023/09/11 17:54:47;;;;;;;15.70;11.32;;;24.10;99.40;;;;;;6120312;23;20177;-86
2023/09/11 20:36:02;;;;;;;20.47;14.20;;;21.00;99.90;;;;;;6270827;22;20248;-76
2023/09/11 20:38:29;;;;;;;24.53;15.73;;;20.80;99.90;;;;;;6272295;22;20501;-76
2023/09/11 20:40:57;;;;;;;24.13;15.20;;;20.80;99.90;;;;;;6270867;22;20166;-84
2023/09/11 20:43:28;;;;;;;21.93;14.43;;;20.70;99.90;;;;;;6247300;22;20256;-84
2023/09/11 20:45:55;;;;;;;23.50;14.63;;;20.60;99.90;;;;;;6274165;22;20702;-81
2023/09/11 20:48:26;;;;;;;22.80;15.60;;;20.80;99.90;;;;;;6276767;22;20169;-82
2023/09/11 20:50:54;;;;;;;20.07;14.37;;;20.70;99.90;;;;;;6276915;22;20235;-81
2023/09/11 20:53:22;;;;;;;22.53;15.30;;;20.70;99.90;;;;;;6276580;22;20168;-75